createdAt,value
2018-10-02T00:02:22.345Z,93.28
2018-10-02T00:04:50.342Z,93.77
2018-10-02T00:07:18.812Z,94.14
2018-10-02T00:09:47.111Z,93.01
2018-10-02T00:12:20.371Z,92.88
2018-10-02T00:14:48.561Z,93.54
2018-10-02T00:17:16.609Z,94.22
2018-10-02T00:19:44.758Z,95.46
2018-10-02T00:22:12.736Z,96.14
2018-10-02T00:24:40.994Z,96.15
2018-10-02T00:27:09.085Z,95.56
2018-10-02T00:29:37.374Z,95.12
2018-10-02T00:32:05.349Z,94.62
2018-10-02T00:34:33.746Z,94.20
2018-10-02T00:37:01.706Z,95.05
2018-10-02T00:39:30.070Z,93.96
2018-10-02T00:41:58.077Z,93.69
2018-10-02T00:44:25.981Z,93.24
2018-10-02T00:46:54.877Z,93.63
2018-10-02T00:49:22.885Z,94.47
2018-10-02T00:51:50.974Z,94.78
2018-10-02T00:54:19.216Z,94.96
2018-10-02T00:56:47.411Z,95.18
2018-10-02T00:59:15.499Z,94.94
2018-10-02T01:01:43.448Z,95.56
2018-10-02T01:04:11.737Z,96.46
2018-10-02T01:06:39.925Z,97.02
2018-10-02T01:09:11.725Z,96.67
2018-10-02T01:11:40.670Z,96.35
2018-10-02T01:14:08.535Z,96.45
2018-10-02T01:16:36.612Z,96.40
2018-10-02T01:19:05.727Z,95.83
2018-10-02T01:21:34.568Z,96.21
2018-10-02T01:24:02.626Z,96.38
2018-10-02T01:26:30.570Z,95.68
2018-10-02T01:28:58.713Z,95.29
2018-10-02T01:31:26.659Z,95.47
2018-10-02T01:33:54.593Z,96.40
2018-10-02T01:36:22.556Z,98.16
2018-10-02T01:38:50.464Z,97.49
2018-10-02T01:41:18.389Z,96.56
2018-10-02T01:43:46.260Z,95.98
2018-10-02T01:46:14.206Z,96.36
2018-10-02T01:48:42.297Z,97.59
2018-10-02T01:51:10.931Z,96.98
2018-10-02T01:53:38.938Z,97.00
2018-10-02T01:56:06.941Z,96.52
2018-10-02T01:58:35.112Z,96.52
2018-10-02T02:01:03.103Z,97.80
2018-10-02T02:03:31.557Z,98.68
2018-10-02T02:05:59.721Z,98.56
2018-10-02T02:08:27.705Z,98.04
2018-10-02T02:10:55.853Z,97.81
2018-10-02T02:13:23.850Z,98.26
2018-10-02T02:15:51.856Z,99.35
2018-10-02T02:18:19.772Z,99.96
2018-10-02T02:20:47.777Z,100.00
2018-10-02T02:23:15.801Z,99.94
2018-10-02T02:25:43.763Z,100.00
2018-10-02T02:28:11.721Z,100.00
2018-10-02T02:30:39.704Z,100.00
2018-10-02T02:33:07.618Z,100.00
2018-10-02T02:35:35.918Z,100.00
2018-10-02T02:38:04.036Z,100.00
2018-10-02T02:40:31.943Z,100.00
2018-10-02T02:42:59.868Z,100.00
2018-10-02T02:45:27.890Z,100.00
2018-10-02T02:48:01.218Z,100.00
2018-10-02T02:50:34.527Z,100.00
2018-10-02T02:53:05.800Z,100.00
2018-10-02T02:55:33.754Z,100.00
2018-10-02T02:58:01.865Z,100.00
2018-10-02T03:00:29.814Z,100.00
2018-10-02T03:02:57.757Z,100.00
2018-10-02T03:05:25.650Z,100.00
2018-10-02T03:07:53.676Z,100.00
2018-10-02T03:10:21.900Z,100.00
2018-10-02T03:12:49.818Z,100.00
2018-10-02T03:15:17.990Z,100.00
2018-10-02T03:17:45.955Z,100.00
2018-10-02T03:20:13.907Z,100.00
2018-10-02T03:22:41.877Z,100.00
2018-10-02T03:25:09.792Z,100.00
2018-10-02T03:27:37.905Z,100.00
2018-10-02T03:30:05.861Z,100.00
2018-10-02T03:32:33.872Z,100.00
2018-10-02T03:35:01.918Z,100.00
2018-10-02T03:37:30.002Z,100.00
2018-10-02T03:39:58.062Z,100.00
2018-10-02T03:42:26.056Z,100.00
2018-10-02T03:44:53.971Z,100.00
2018-10-02T03:47:22.026Z,100.00
2018-10-02T03:49:49.916Z,100.00
2018-10-02T03:52:17.995Z,100.00
2018-10-02T03:54:45.865Z,100.00
2018-10-02T03:57:13.775Z,100.00
2018-10-02T03:59:41.813Z,100.00
2018-10-02T04:02:09.775Z,100.00
2018-10-02T04:04:37.666Z,100.00
2018-10-02T04:07:05.624Z,100.00
2018-10-02T04:09:33.538Z,100.00
2018-10-02T04:12:01.641Z,100.00
2018-10-02T04:14:29.891Z,100.00
2018-10-02T04:16:57.993Z,100.00
2018-10-02T04:19:25.882Z,100.00
2018-10-02T04:21:53.867Z,100.00
2018-10-02T04:24:22.159Z,100.00
2018-10-02T04:26:50.141Z,100.00
2018-10-02T04:29:18.054Z,100.00
2018-10-02T04:31:46.029Z,100.00
2018-10-02T04:34:14.093Z,100.00
2018-10-02T04:36:42.054Z,100.00
2018-10-02T04:39:09.949Z,100.00
2018-10-02T04:41:38.031Z,100.00
2018-10-02T04:44:05.992Z,100.00
2018-10-02T04:46:36.798Z,100.00
2018-10-02T04:49:05.014Z,100.00
2018-10-02T04:51:33.463Z,100.00
2018-10-02T04:54:01.961Z,100.00
2018-10-02T04:56:29.941Z,100.00
2018-10-02T04:58:57.990Z,100.00
2018-10-02T05:01:26.029Z,100.00
2018-10-02T05:03:54.000Z,100.00
2018-10-02T05:06:22.007Z,100.00
2018-10-02T05:08:50.370Z,100.00
2018-10-02T05:11:19.002Z,100.00
2018-10-02T05:13:47.063Z,100.00
2018-10-02T05:16:15.107Z,100.00
2018-10-02T05:18:43.079Z,100.00
2018-10-02T05:21:11.060Z,100.00
2018-10-02T05:23:39.110Z,100.00
2018-10-02T05:26:07.135Z,100.00
2018-10-02T05:28:35.141Z,98.16
2018-10-02T05:31:03.174Z,97.48
2018-10-02T05:33:31.433Z,97.18
2018-10-02T05:35:59.475Z,95.67
2018-10-02T05:38:27.716Z,95.34
2018-10-02T05:40:55.665Z,96.38
2018-10-02T05:43:23.639Z,97.48
2018-10-02T05:45:51.622Z,96.69
2018-10-02T05:48:19.601Z,95.56
2018-10-02T05:50:47.541Z,93.44
2018-10-02T05:53:15.525Z,91.86
2018-10-02T05:55:43.573Z,93.45
2018-10-02T05:58:11.493Z,94.47
2018-10-02T06:00:39.758Z,94.52
2018-10-02T06:03:07.841Z,94.67
2018-10-02T06:05:35.812Z,94.54
2018-10-02T06:08:04.103Z,94.47
2018-10-02T06:10:32.307Z,94.80
2018-10-02T06:13:00.521Z,94.72
2018-10-02T06:15:29.685Z,94.99
2018-10-02T06:17:57.918Z,95.29
2018-10-02T06:20:27.021Z,95.42
2018-10-02T06:22:55.243Z,95.08
2018-10-02T06:25:23.415Z,94.69
2018-10-02T06:27:52.896Z,92.68
2018-10-02T06:30:29.207Z,94.20
2018-10-02T06:32:57.347Z,94.94
2018-10-02T06:35:25.599Z,95.61
2018-10-02T06:37:53.870Z,94.18
2018-10-02T06:40:22.154Z,94.14
2018-10-02T06:42:50.232Z,91.54
2018-10-02T06:45:18.967Z,90.01
2018-10-02T06:47:47.025Z,89.99
2018-10-02T06:50:15.401Z,91.32
2018-10-02T06:52:50.161Z,90.91
2018-10-02T06:55:21.184Z,90.05
2018-10-02T06:57:54.619Z,90.97
2018-10-02T07:00:24.476Z,92.64
2018-10-02T07:02:52.761Z,92.03
2018-10-02T07:05:21.231Z,90.03
2018-10-02T07:07:49.213Z,90.42
2018-10-02T07:10:17.254Z,89.24
2018-10-02T07:12:45.410Z,89.88
2018-10-02T07:15:13.615Z,90.11
2018-10-02T07:17:41.611Z,88.23
2018-10-02T07:20:09.631Z,86.47
2018-10-02T07:22:37.633Z,85.42
2018-10-02T07:25:06.339Z,85.42
2018-10-02T07:27:34.280Z,87.68
2018-10-02T07:30:02.262Z,87.02
2018-10-02T07:32:30.548Z,84.68
2018-10-02T07:34:58.739Z,84.61
2018-10-02T07:37:27.762Z,85.21
2018-10-02T07:39:56.071Z,87.67
2018-10-02T07:42:24.185Z,84.81
2018-10-02T07:44:52.804Z,83.73
2018-10-02T07:47:20.808Z,85.95
2018-10-02T07:49:48.862Z,86.70
2018-10-02T07:52:16.929Z,84.20
2018-10-02T07:54:44.946Z,84.07
2018-10-02T07:57:13.027Z,83.55
2018-10-02T07:59:41.185Z,83.48
2018-10-02T08:02:09.039Z,82.71
2018-10-02T08:04:37.481Z,79.18
2018-10-02T08:07:05.836Z,75.66
2018-10-02T08:09:34.058Z,74.12
2018-10-02T08:12:02.212Z,73.98
2018-10-02T08:14:30.314Z,75.42
2018-10-02T08:16:58.778Z,75.27
2018-10-02T08:19:26.945Z,73.19
2018-10-02T08:21:55.036Z,73.12
2018-10-02T08:24:23.164Z,76.12
2018-10-02T08:26:51.202Z,76.68
2018-10-02T08:29:19.274Z,73.62
2018-10-02T08:31:47.309Z,72.31
2018-10-02T08:34:15.447Z,73.14
2018-10-02T08:36:43.692Z,71.64
2018-10-02T08:39:12.283Z,70.67
2018-10-02T08:41:40.612Z,70.65
2018-10-02T08:44:08.850Z,72.40
2018-10-02T08:46:37.333Z,72.29
2018-10-02T08:49:05.670Z,70.04
2018-10-02T08:51:39.696Z,68.84
2018-10-02T08:54:10.831Z,66.87
2018-10-02T08:56:38.850Z,66.43
2018-10-02T08:59:16.147Z,63.56
2018-10-02T09:01:44.206Z,64.03
2018-10-02T09:04:12.362Z,63.86
2018-10-02T09:06:40.443Z,61.86
2018-10-02T09:09:10.145Z,61.36
2018-10-02T09:11:38.327Z,62.26
2018-10-02T09:14:06.811Z,61.97
2018-10-02T09:16:34.930Z,63.76
2018-10-02T09:19:03.723Z,65.62
2018-10-02T09:21:32.377Z,64.32
2018-10-02T09:24:00.938Z,61.82
2018-10-02T09:26:28.957Z,60.35
2018-10-02T09:28:56.886Z,60.00
2018-10-02T09:31:30.266Z,58.39
2018-10-02T09:34:03.825Z,57.23
2018-10-02T09:36:37.427Z,57.30
2018-10-02T09:39:12.507Z,56.48
2018-10-02T09:41:45.949Z,56.83
2018-10-02T09:44:13.872Z,57.96
2018-10-02T09:46:41.828Z,56.22
2018-10-02T09:49:09.777Z,56.16
2018-10-02T09:51:37.747Z,57.72
2018-10-02T09:54:05.782Z,58.79
2018-10-02T09:56:39.361Z,59.83
2018-10-02T09:59:07.381Z,58.99
2018-10-02T10:01:40.752Z,58.27
2018-10-02T10:04:08.784Z,55.79
2018-10-02T10:06:37.034Z,54.35
2018-10-02T10:09:06.150Z,53.11
2018-10-02T10:11:34.080Z,53.21
2018-10-02T10:14:02.296Z,52.13
2018-10-02T10:16:30.333Z,51.18
2018-10-02T10:18:58.264Z,51.55
2018-10-02T10:21:26.144Z,52.22
2018-10-02T10:23:54.358Z,51.20
2018-10-02T10:26:22.977Z,51.82
2018-10-02T10:28:51.102Z,52.12
2018-10-02T10:31:19.007Z,50.27
2018-10-02T10:33:47.194Z,49.71
2018-10-02T10:36:15.803Z,48.65
2018-10-02T10:38:43.784Z,47.63
2018-10-02T10:41:12.018Z,47.75
2018-10-02T10:43:40.005Z,47.52
2018-10-02T10:46:08.214Z,46.43
2018-10-02T10:48:36.364Z,48.36
2018-10-02T10:51:04.313Z,50.60
2018-10-02T10:53:32.431Z,49.29
2018-10-02T10:56:00.467Z,49.79
2018-10-02T10:58:28.462Z,48.86
2018-10-02T11:00:56.558Z,50.25
2018-10-02T11:03:24.496Z,49.50
2018-10-02T11:05:52.630Z,49.73
2018-10-02T11:08:21.183Z,49.37
2018-10-02T11:10:49.239Z,50.58
2018-10-02T11:13:17.365Z,49.12
2018-10-02T11:15:45.316Z,46.83
2018-10-02T11:18:13.391Z,48.66
2018-10-02T11:20:41.575Z,49.01
2018-10-02T11:23:11.920Z,47.47
2018-10-02T11:25:40.119Z,47.27
2018-10-02T11:28:08.155Z,44.92
2018-10-02T11:30:36.165Z,46.48
2018-10-02T11:33:04.250Z,46.08
2018-10-02T11:35:32.675Z,43.70
2018-10-02T11:38:00.717Z,44.80
2018-10-02T11:40:30.411Z,44.18
2018-10-02T11:42:58.386Z,44.14
2018-10-02T11:45:26.626Z,42.69
2018-10-02T11:47:54.546Z,42.50
2018-10-02T11:50:23.949Z,42.02
2018-10-02T11:52:51.957Z,42.56
2018-10-02T11:55:21.852Z,43.98
2018-10-02T11:57:51.932Z,43.73
2018-10-02T12:00:20.316Z,41.91
2018-10-02T12:02:48.412Z,42.11
2018-10-02T12:05:16.466Z,44.24
2018-10-02T12:07:44.343Z,43.79
2018-10-02T12:10:12.542Z,42.77
2018-10-02T12:12:40.598Z,42.51
2018-10-02T12:15:09.695Z,42.25
2018-10-02T12:17:37.763Z,42.50
2018-10-02T12:20:06.311Z,43.63
2018-10-02T12:22:34.222Z,42.36
2018-10-02T12:25:02.381Z,42.22
2018-10-02T12:27:34.638Z,42.49
2018-10-02T12:30:02.916Z,41.33
2018-10-02T12:32:31.371Z,42.18
2018-10-02T12:35:00.703Z,41.23
2018-10-02T12:37:29.352Z,41.08
2018-10-02T12:40:01.634Z,40.97
2018-10-02T12:42:30.148Z,40.57
2018-10-02T12:44:58.102Z,39.97
2018-10-02T12:47:26.327Z,39.60
2018-10-02T12:49:56.158Z,39.61
2018-10-02T12:52:24.231Z,40.25
2018-10-02T12:54:52.450Z,39.84
2018-10-02T12:57:20.823Z,39.92
2018-10-02T12:59:50.675Z,40.04
2018-10-02T13:02:18.998Z,40.52
2018-10-02T13:04:47.081Z,40.37
2018-10-02T13:07:15.826Z,39.97
2018-10-02T13:09:43.872Z,39.24
2018-10-02T13:12:11.849Z,39.56
2018-10-02T13:14:39.789Z,38.57
2018-10-02T13:17:07.888Z,38.37
2018-10-02T13:19:36.331Z,37.83
2018-10-02T13:22:04.386Z,37.21
2018-10-02T13:24:33.683Z,36.89
2018-10-02T13:27:01.781Z,37.69
2018-10-02T13:29:31.301Z,37.78
2018-10-02T13:31:59.509Z,38.47
2018-10-02T13:34:27.616Z,37.58
2018-10-02T13:36:55.869Z,36.92
2018-10-02T13:39:23.818Z,37.07
2018-10-02T13:41:54.138Z,36.83
2018-10-02T13:44:23.137Z,36.55
2018-10-02T13:46:51.484Z,37.06
2018-10-02T13:49:19.623Z,37.31
2018-10-02T13:51:48.382Z,37.95
2018-10-02T13:54:17.149Z,37.53
2018-10-02T13:56:45.849Z,38.04
2018-10-02T13:59:14.162Z,37.06
2018-10-02T14:01:42.297Z,36.75
2018-10-02T14:04:10.865Z,37.64
2018-10-02T14:06:41.199Z,36.79
2018-10-02T14:09:09.411Z,36.40
2018-10-02T14:11:37.370Z,37.08
2018-10-02T14:14:05.501Z,37.15
2018-10-02T14:16:33.505Z,37.50
2018-10-02T14:19:01.591Z,37.93
2018-10-02T14:21:31.534Z,37.90
2018-10-02T14:23:59.700Z,37.37
2018-10-02T14:26:27.816Z,37.40
2018-10-02T14:28:55.777Z,37.88
2018-10-02T14:31:23.751Z,37.71
2018-10-02T14:33:51.931Z,37.87
2018-10-02T14:36:20.206Z,37.90
2018-10-02T14:38:48.312Z,37.62
2018-10-02T14:41:16.389Z,37.25
2018-10-02T14:43:44.461Z,38.23
2018-10-02T14:46:12.894Z,37.76
2018-10-02T14:48:40.889Z,37.74
2018-10-02T14:51:08.916Z,37.73
2018-10-02T14:53:37.100Z,38.23
2018-10-02T14:56:05.020Z,38.97
2018-10-02T14:58:33.006Z,39.26
2018-10-02T15:01:00.927Z,39.49
2018-10-02T15:03:28.900Z,40.24
2018-10-02T15:05:57.021Z,40.10
2018-10-02T15:08:25.024Z,40.29
2018-10-02T15:10:54.030Z,39.98
2018-10-02T15:13:22.042Z,40.35
2018-10-02T15:15:50.043Z,40.59
2018-10-02T15:18:18.057Z,40.92
2018-10-02T15:20:46.210Z,41.14
2018-10-02T15:23:14.316Z,40.69
2018-10-02T15:25:42.419Z,41.41
2018-10-02T15:28:11.379Z,43.03
2018-10-02T15:30:39.460Z,44.33
2018-10-02T15:33:08.449Z,43.79
2018-10-02T15:35:36.434Z,44.30
2018-10-02T15:38:04.489Z,45.15
2018-10-02T15:40:32.827Z,44.77
2018-10-02T15:43:01.644Z,45.88
2018-10-02T15:45:29.649Z,45.73
2018-10-02T15:47:57.862Z,46.04
2018-10-02T15:50:26.199Z,46.05
2018-10-02T15:52:54.129Z,46.93
2018-10-02T15:55:22.317Z,46.67
2018-10-02T15:57:50.399Z,47.21
2018-10-02T16:00:18.806Z,47.74
2018-10-02T16:02:47.306Z,48.09
2018-10-02T16:05:15.254Z,47.82
2018-10-02T16:07:43.194Z,48.06
2018-10-02T16:10:11.406Z,48.49
2018-10-02T16:12:39.335Z,48.77
2018-10-02T16:15:07.344Z,48.29
2018-10-02T16:17:35.410Z,48.92
2018-10-02T16:20:03.593Z,49.09
2018-10-02T16:22:31.506Z,48.94
2018-10-02T16:24:59.661Z,49.44
2018-10-02T16:27:27.792Z,49.94
2018-10-02T16:29:55.692Z,50.71
2018-10-02T16:32:23.779Z,50.54
2018-10-02T16:34:51.869Z,50.50
2018-10-02T16:37:19.855Z,51.26
2018-10-02T16:39:49.182Z,52.13
2018-10-02T16:42:17.989Z,53.57
2018-10-02T16:44:45.934Z,54.14
2018-10-02T16:47:14.016Z,55.77
2018-10-02T16:49:41.875Z,56.07
2018-10-02T16:52:09.914Z,56.14
2018-10-02T16:54:37.850Z,56.03
2018-10-02T16:57:06.097Z,56.28
2018-10-02T16:59:34.056Z,56.94
2018-10-02T17:02:01.995Z,57.92
2018-10-02T17:04:30.143Z,58.59
2018-10-02T17:06:58.074Z,58.13
2018-10-02T17:09:26.133Z,57.96
2018-10-02T17:11:54.307Z,56.79
2018-10-02T17:14:22.333Z,57.20
2018-10-02T17:16:50.362Z,57.69
2018-10-02T17:19:18.449Z,58.40
2018-10-02T17:21:46.511Z,59.52
2018-10-02T17:24:14.611Z,59.59
2018-10-02T17:26:43.933Z,59.12
2018-10-02T17:29:11.920Z,59.74
2018-10-02T17:31:39.946Z,60.12
2018-10-02T17:34:07.914Z,61.61
2018-10-02T17:36:40.390Z,62.12
2018-10-02T17:39:10.168Z,62.69
2018-10-02T17:41:41.608Z,63.11
2018-10-02T17:44:09.883Z,64.47
2018-10-02T17:46:37.834Z,63.70
2018-10-02T17:49:07.198Z,64.57
2018-10-02T17:51:35.095Z,64.37
2018-10-02T17:54:03.065Z,64.06
2018-10-02T17:56:31.026Z,63.81
2018-10-02T17:58:58.951Z,64.16
2018-10-02T18:01:27.218Z,64.03
2018-10-02T18:03:55.177Z,64.77
2018-10-02T18:06:23.202Z,64.84
2018-10-02T18:08:51.284Z,65.14
2018-10-02T18:11:22.961Z,64.71
2018-10-02T18:13:50.912Z,64.66
2018-10-02T18:16:18.871Z,64.84
2018-10-02T18:18:46.875Z,64.95
2018-10-02T18:21:14.819Z,65.01
2018-10-02T18:23:42.844Z,65.17
2018-10-02T18:26:10.869Z,65.10
2018-10-02T18:28:39.935Z,64.46
2018-10-02T18:31:08.134Z,65.08
2018-10-02T18:33:36.189Z,65.66
2018-10-02T18:36:04.268Z,66.27
2018-10-02T18:38:32.224Z,67.58
2018-10-02T18:41:00.266Z,67.29
2018-10-02T18:43:28.497Z,67.51
2018-10-02T18:45:56.637Z,67.80
2018-10-02T18:48:25.464Z,67.75
2018-10-02T18:50:53.404Z,68.84
2018-10-02T18:53:21.436Z,69.30
2018-10-02T18:55:49.542Z,69.81
2018-10-02T18:58:17.686Z,69.61
2018-10-02T19:00:45.838Z,70.26
2018-10-02T19:03:13.966Z,70.72
2018-10-02T19:05:42.432Z,71.58
2018-10-02T19:08:10.374Z,71.44
2018-10-02T19:10:38.528Z,71.87
2018-10-02T19:13:06.475Z,72.08
2018-10-02T19:15:40.010Z,72.60
2018-10-02T19:18:07.991Z,72.71
2018-10-02T19:20:41.701Z,73.05
2018-10-02T19:23:09.813Z,68.08
2018-10-02T19:25:43.265Z,67.55
2018-10-02T19:28:11.537Z,66.52
2018-10-02T19:30:45.927Z,67.08
2018-10-02T19:33:13.895Z,66.54
2018-10-02T19:35:41.807Z,65.76
2018-10-02T19:38:15.290Z,65.96
2018-10-02T19:40:43.342Z,62.87
2018-10-02T19:43:11.443Z,61.37
2018-10-02T19:45:44.929Z,61.04
2018-10-02T19:48:15.852Z,60.85
2018-10-02T19:50:44.762Z,58.77
2018-10-02T19:53:12.770Z,57.65
2018-10-02T19:55:40.728Z,58.34
2018-10-02T19:58:08.661Z,58.51
2018-10-02T20:00:36.691Z,57.64
2018-10-02T20:03:05.216Z,59.29
2018-10-02T20:05:33.135Z,58.43
2018-10-02T20:08:01.211Z,58.13
2018-10-02T20:10:29.230Z,58.86
2018-10-02T20:12:57.234Z,58.59
2018-10-02T20:15:25.410Z,58.97
2018-10-02T20:17:54.537Z,59.12
2018-10-02T20:20:23.414Z,59.36
2018-10-02T20:22:52.819Z,59.90
2018-10-02T20:25:21.803Z,59.48
2018-10-02T20:27:49.999Z,60.60
2018-10-02T20:30:18.039Z,59.33
2018-10-02T20:32:46.148Z,60.26
2018-10-02T20:35:14.166Z,60.24
2018-10-02T20:37:42.161Z,61.08
2018-10-02T20:40:10.470Z,61.19
2018-10-02T20:42:38.392Z,61.79
2018-10-02T20:45:06.397Z,60.93
2018-10-02T20:47:34.402Z,61.48
2018-10-02T20:50:02.312Z,62.08
2018-10-02T20:52:30.329Z,61.83
2018-10-02T20:54:59.200Z,62.63
2018-10-02T20:57:27.448Z,63.70
2018-10-02T20:59:55.335Z,63.45
2018-10-02T21:02:23.248Z,63.68
2018-10-02T21:04:51.132Z,63.75
2018-10-02T21:07:19.074Z,63.51
2018-10-02T21:09:47.033Z,64.24
2018-10-02T21:12:15.119Z,64.11
2018-10-02T21:14:43.035Z,64.01
2018-10-02T21:17:11.048Z,65.13
2018-10-02T21:19:39.130Z,66.03
2018-10-02T21:22:07.189Z,66.59
2018-10-02T21:24:35.441Z,67.03
2018-10-02T21:27:03.455Z,67.36
2018-10-02T21:29:31.524Z,67.62
2018-10-02T21:31:59.503Z,67.21
2018-10-02T21:34:27.516Z,67.65
2018-10-02T21:36:55.467Z,68.09
2018-10-02T21:39:23.563Z,68.98
2018-10-02T21:41:51.420Z,68.43
2018-10-02T21:44:19.361Z,69.29
2018-10-02T21:46:47.382Z,69.52
2018-10-02T21:49:15.267Z,69.49
2018-10-02T21:51:43.214Z,70.02
2018-10-02T21:54:11.226Z,69.70
2018-10-02T21:56:39.815Z,70.34
2018-10-02T21:59:07.765Z,69.95
2018-10-02T22:01:35.698Z,69.65
2018-10-02T22:04:03.730Z,70.50
2018-10-02T22:06:31.714Z,70.52
2018-10-02T22:08:59.686Z,69.38
2018-10-02T22:11:27.896Z,69.37
2018-10-02T22:13:55.863Z,70.71
2018-10-02T22:16:23.832Z,70.77
2018-10-02T22:18:51.932Z,70.70
2018-10-02T22:21:21.152Z,70.25
2018-10-02T22:23:49.762Z,70.59
2018-10-02T22:26:17.981Z,71.16
2018-10-02T22:28:45.931Z,70.10
2018-10-02T22:31:14.048Z,70.28
2018-10-02T22:33:42.084Z,70.85
2018-10-02T22:36:10.036Z,70.80
2018-10-02T22:38:37.987Z,71.51
2018-10-02T22:41:06.246Z,70.80
2018-10-02T22:43:34.218Z,71.30
2018-10-02T22:46:02.140Z,71.69
2018-10-02T22:48:30.183Z,71.10
2018-10-02T22:50:58.228Z,70.91
2018-10-02T22:53:26.144Z,71.44
2018-10-02T22:55:54.166Z,71.17
2018-10-02T22:58:22.159Z,70.75
2018-10-02T23:00:50.101Z,71.56
2018-10-02T23:03:18.199Z,71.86
2018-10-02T23:05:46.168Z,72.09
2018-10-02T23:08:14.134Z,71.84
2018-10-02T23:10:42.097Z,71.71
2018-10-02T23:13:10.243Z,72.07
2018-10-02T23:15:38.192Z,72.38
2018-10-02T23:18:06.109Z,71.85
2018-10-02T23:20:35.237Z,72.65
2018-10-02T23:23:06.343Z,72.76
2018-10-02T23:25:34.550Z,72.94
2018-10-02T23:28:02.786Z,72.98
2018-10-02T23:30:30.869Z,72.46
2018-10-02T23:32:58.854Z,73.02
2018-10-02T23:35:27.915Z,72.97
2018-10-02T23:37:56.026Z,72.83
2018-10-02T23:40:24.264Z,72.91
2018-10-02T23:42:52.168Z,73.32
2018-10-02T23:45:20.678Z,72.37
2018-10-02T23:47:48.781Z,72.69
2018-10-02T23:50:16.812Z,72.55
2018-10-02T23:52:44.952Z,72.84
2018-10-02T23:55:13.016Z,73.01
2018-10-02T23:57:41.093Z,73.98
